CDT,Max TemperatureF,Mean TemperatureF,Min TemperatureF,Max Dew PointF,MeanDew PointF,Min DewpointF,Max Humidity, Mean Humidity, Min Humidity, Max Sea Level PressureIn, Mean Sea Level PressureIn, Min Sea Level PressureIn, Max VisibilityMiles, Mean VisibilityMiles, Min VisibilityMiles, Max Wind SpeedMPH, Mean Wind SpeedMPH, Max Gust SpeedMPH,PrecipitationIn, CloudCover, Events, WindDirDegrees
2013-10-1,80,68,56,61,57,48,100,73,45,29.99,29.89,29.84,10,9,5,16,10,26,0.00,1,,227
2013-10-2,77,64,50,61,49,42,93,63,33,30.10,30.02,29.94,10,10,10,16,8,20,0.00,1,,94
2013-10-3,76,68,60,72,66,61,100,87,74,29.93,29.87,29.81,10,4,0,15,8,18,0.18,6,Fog-Rain-Thunderstorm,136
2013-10-4,71,67,63,68,65,63,100,94,87,30.01,29.91,29.85,10,7,1,32,9,54,0.87,5,Rain-Thunderstorm,166
2013-10-5,70,57,44,68,61,40,100,87,74,29.87,29.83,29.76,10,10,5,23,9,40,T,4,,210
2013-10-6,52,46,40,43,40,38,100,81,61,29.82,29.77,29.72,10,10,10,12,6,,0.01,4,Rain,246
2013-10-7,70,56,42,47,44,42,100,69,37,30.09,29.94,29.80,10,10,10,17,7,24,0.00,2,,289
2013-10-8,74,60,45,49,45,42,93,63,33,30.15,30.11,30.07,10,10,9,21,10,26,0.00,0,,185
2013-10-9,71,59,47,49,46,43,93,65,37,30.20,30.15,30.11,10,10,8,16,7,21,0.00,0,,173
2013-10-10,72,59,46,54,49,43,86,68,49,30.16,30.09,30.01,10,10,10,11,6,16,0.00,0,,159
2013-10-11,74,64,53,58,54,52,100,73,46,30.02,29.94,29.86,10,9,4,25,13,35,0.00,2,,160
2013-10-12,65,53,41,57,47,36,93,66,39,30.22,29.99,29.86,10,10,10,22,9,29,0.00,2,,240
2013-10-13,61,47,33,39,34,31,92,62,32,30.45,30.38,30.23,10,10,10,10,3,91,0.00,0,,329
2013-10-14,62,48,34,43,39,33,100,73,46,30.42,30.29,30.06,10,10,8,21,10,26,0.00,0,,116
2013-10-15,60,54,48,59,49,41,100,83,66,30.03,29.85,29.78,10,8,1,24,16,30,0.18,7,Rain,204
2013-10-16,50,48,45,47,45,44,100,93,86,29.98,29.90,29.83,10,10,6,21,9,29,0.00,8,,276
2013-10-17,57,47,36,46,42,34,100,72,43,29.94,29.89,29.83,10,8,2,16,5,20,0.05,6,Rain,253
2013-10-18,49,43,36,42,37,33,96,76,56,29.99,29.93,29.86,10,10,10,21,8,25,0.00,5,,276
2013-10-19,51,41,30,41,35,29,100,78,56,29.94,29.85,29.80,10,10,5,28,8,33,0.06,4,Rain,236
2013-10-20,53,41,29,47,38,29,100,86,71,29.86,29.80,29.73,10,10,10,20,8,25,0.03,5,Rain,216
2013-10-21,43,35,27,40,28,22,92,69,45,30.01,29.96,29.84,10,10,10,23,11,26,0.00,5,,291
2013-10-22,41,33,24,32,29,24,100,80,59,30.02,29.98,29.92,10,8,1,14,4,20,0.02,7,Snow,1
2013-10-23,40,33,26,32,27,22,92,70,48,30.08,30.04,30.01,10,10,10,16,8,22,0.00,7,,303
2013-10-24,42,33,24,24,22,20,88,67,46,30.37,30.22,30.07,10,10,10,18,9,23,0.00,6,,309
2013-10-25,51,37,23,31,25,21,96,67,38,30.41,30.26,29.99,10,10,10,24,12,31,0.00,2,,225
2013-10-26,50,40,29,33,29,26,85,62,39,30.13,30.00,29.86,10,10,10,25,13,31,0.00,0,,297
2013-10-27,54,39,24,32,27,24,100,69,38,30.09,30.02,29.94,10,10,10,21,8,25,0.00,0,,210
2013-10-28,49,41,33,36,33,28,89,75,61,30.38,30.27,30.04,10,10,4,20,12,26,0.00,2,,54
2013-10-29,56,45,34,43,36,30,92,71,50,30.38,30.24,30.09,10,10,9,16,9,23,0.00,4,,109
2013-10-30,58,53,48,57,51,42,100,90,80,30.10,29.94,29.70,10,4,0,18,8,23,0.20,7,Fog-Rain,151
2013-10-31,61,51,40,61,53,37,100,95,89,29.67,29.49,29.37,10,6,0,24,13,31,0.22,8,Fog-Rain,252